Time;durP1;ratioP1;P1;durP2;ratioP2;P2;SDS_P1;SDS_P2;PMS_P1;PMS_P2;Temp;Humidity;BMP_temperature;BMP_pressure;BME280_temperature;BME280_humidity;BME280_pressure;Samples;Min_cycle;Max_cycle;Signal;HPM_P1;HPM_P2
2023/12/08 00:02:24;;;;;;;21.38;3.70;;;;;;;7.93;100.00;98578.31;5102428;28;20056;-49
2023/12/08 00:04:51;;;;;;;12.85;2.63;;;;;;;7.91;100.00;98585.38;5107915;28;20505;-47
2023/12/08 00:07:18;;;;;;;23.08;4.97;;;;;;;7.91;100.00;98588.13;5110689;28;20073;-48
2023/12/08 00:09:46;;;;;;;19.15;3.35;;;;;;;7.91;100.00;98588.13;5101420;28;20051;-48
2023/12/08 00:12:13;;;;;;;13.02;2.90;;;;;;;7.91;100.00;98597.19;5099058;28;20051;-47
2023/12/08 00:14:40;;;;;;;14.82;2.65;;;;;;;7.92;100.00;98590.47;5101120;28;20408;-47
2023/12/08 00:17:08;;;;;;;13.05;3.10;;;;;;;7.94;100.00;98590.88;5102128;28;20036;-47
2023/12/08 00:19:36;;;;;;;16.90;2.90;;;;;;;7.96;100.00;98583.06;5111484;28;20055;-47
2023/12/08 00:22:04;;;;;;;13.02;2.85;;;;;;;7.97;100.00;98584.63;5111600;28;20047;-49
2023/12/08 00:24:31;;;;;;;27.15;4.60;;;;;;;7.98;100.00;98591.72;5111414;28;20036;-49
2023/12/08 00:26:59;;;;;;;17.65;5.07;;;;;;;7.99;100.00;98587.00;5110395;28;20040;-47
2023/12/08 00:29:26;;;;;;;19.02;3.72;;;;;;;7.98;100.00;98585.41;5110498;28;20039;-47
2023/12/08 00:31:53;;;;;;;12.35;3.17;;;;;;;7.99;100.00;98592.53;5097240;28;21191;-48
2023/12/08 00:34:21;;;;;;;26.27;5.68;;;;;;;7.99;100.00;98592.53;5111142;28;20048;-49
2023/12/08 00:36:49;;;;;;;18.20;3.95;;;;;;;7.98;100.00;98586.22;5109808;28;20069;-47
2023/12/08 00:39:17;;;;;;;14.43;3.30;;;;;;;7.98;100.00;98594.50;5110630;28;20526;-48
2023/12/08 00:41:44;;;;;;;12.25;2.33;;;;;;;7.98;100.00;98601.94;5110649;28;20073;-45
2023/12/08 00:44:12;;;;;;;17.15;4.25;;;;;;;7.96;100.00;98599.59;5110233;28;20059;-50
2023/12/08 00:46:40;;;;;;;25.58;3.78;;;;;;;7.93;100.00;98605.06;5111042;28;20047;-46
2023/12/08 00:49:07;;;;;;;14.18;2.50;;;;;;;7.91;100.00;98607.41;5092711;28;20088;-47
2023/12/08 00:51:34;;;;;;;17.33;4.63;;;;;;;7.90;100.00;98601.09;5110682;28;20493;-47
2023/12/08 00:54:02;;;;;;;18.02;3.15;;;;;;;7.88;100.00;98597.94;5110188;28;20035;-46
2023/12/08 00:56:29;;;;;;;15.52;4.07;;;;;;;7.86;100.00;98597.50;5110231;28;20069;-46
2023/12/08 00:58:57;;;;;;;14.75;3.55;;;;;;;7.84;100.00;98596.31;5110420;28;20541;-50
2023/12/08 01:01:24;;;;;;;16.13;3.28;;;;;;;7.83;100.00;98601.03;5110381;28;20047;-45
2023/12/08 01:03:51;;;;;;;23.55;3.22;;;;;;;7.82;100.00;98593.94;5108592;28;20055;-45
2023/12/08 01:06:19;;;;;;;23.08;2.92;;;;;;;7.84;100.00;98596.31;5109759;28;20032;-45
2023/12/08 01:08:46;;;;;;;26.95;4.38;;;;;;;7.83;100.00;98587.28;5104602;28;20047;-47
2023/12/08 01:11:14;;;;;;;16.02;2.85;;;;;;;7.82;100.00;98587.63;5092178;28;20051;-46
2023/12/08 01:13:41;;;;;;;19.02;3.70;;;;;;;7.80;100.00;98584.47;5110026;28;20048;-47
2023/12/08 01:16:08;;;;;;;21.38;2.72;;;;;;;7.79;100.00;98572.66;5109388;28;20089;-47
2023/12/08 01:18:36;;;;;;;24.35;5.25;;;;;;;7.80;100.00;98573.44;5109567;28;20123;-46
2023/12/08 01:21:04;;;;;;;18.70;3.58;;;;;;;7.79;100.00;98578.16;5097554;28;20044;-45
2023/12/08 01:23:31;;;;;;;13.70;3.05;;;;;;;7.79;100.00;98586.44;5109581;28;20112;-48
2023/12/08 01:25:58;;;;;;;24.55;3.33;;;;;;;7.78;100.00;98576.56;5110277;28;20052;-46
2023/12/08 01:28:26;;;;;;;13.30;3.40;;;;;;;7.77;100.00;98577.75;5103835;28;20772;-47
2023/12/08 01:30:54;;;;;;;13.05;3.13;;;;;;;7.75;100.00;98580.09;5102692;28;20075;-49
2023/12/08 01:33:21;;;;;;;23.70;3.58;;;;;;;7.75;100.00;98588.38;5096922;28;20501;-48
2023/12/08 01:35:49;;;;;;;13.75;3.83;;;;;;;7.72;100.00;98583.63;5109668;28;20040;-52
2023/12/08 01:38:36;;;;;;;19.05;3.72;;;;;;;7.72;100.00;98583.63;5109764;28;20501;-54
2023/12/08 01:41:04;;;;;;;21.30;4.72;;;;;;;7.71;100.00;98586.72;5109356;28;20093;-49
2023/12/08 01:43:31;;;;;;;20.83;2.83;;;;;;;7.70;100.00;98591.47;5109370;28;20439;-46
2023/12/08 01:45:59;;;;;;;14.15;2.75;;;;;;;7.69;100.00;98583.56;5108772;28;21726;-51
2023/12/08 01:48:27;;;;;;;17.48;3.58;;;;;;;7.66;100.00;98576.84;5109902;28;20047;-51
2023/12/08 01:50:55;;;;;;;18.88;3.50;;;;;;;7.65;100.00;98567.00;5090905;28;20163;-48
2023/12/08 01:53:23;;;;;;;15.38;3.80;;;;;;;7.66;100.00;98582.38;5106072;28;20100;-46
2023/12/08 01:55:50;;;;;;;13.40;2.85;;;;;;;7.67;100.00;98575.69;5106191;28;20048;-50
2023/12/08 01:58:18;;;;;;;15.45;2.55;;;;;;;7.67;100.00;98580.41;5109414;28;20048;-46
2023/12/08 02:00:45;;;;;;;19.42;3.40;;;;;;;7.63;100.00;98580.38;5090503;28;20062;-51
2023/12/08 02:03:14;;;;;;;19.90;4.07;;;;;;;7.63;100.00;98585.88;5107143;28;20051;-49
2023/12/08 02:05:48;;;;;;;21.83;3.92;;;;;;;7.62;100.00;98578.81;5104833;28;20089;-48
2023/12/08 02:08:16;;;;;;;30.83;4.10;;;;;;;7.60;100.00;98578.34;5103008;28;20048;-48
2023/12/08 02:10:44;;;;;;;17.83;4.15;;;;;;;7.59;100.00;98579.56;5108225;28;20047;-49
2023/12/08 02:13:11;;;;;;;11.48;3.00;;;;;;;7.58;100.00;98588.97;5108510;28;20048;-51
2023/12/08 02:15:39;;;;;;;17.23;3.80;;;;;;;7.59;100.00;98587.81;5108566;28;20039;-48
2023/12/08 02:18:09;;;;;;;16.17;4.15;;;;;;;7.60;100.00;98589.38;5107813;28;20578;-50
2023/12/08 02:20:36;;;;;;;14.63;2.85;;;;;;;7.59;100.00;98582.31;5106042;28;20052;-53
2023/12/08 02:23:06;;;;;;;13.63;2.78;;;;;;;7.59;100.00;98590.56;5108833;28;20085;-53
2023/12/08 02:25:34;;;;;;;17.15;3.50;;;;;;;7.61;100.00;98588.22;5108075;28;20061;-46
2023/12/08 02:28:06;;;;;;;13.35;2.53;;;;;;;7.62;100.00;98589.81;5108191;28;20092;-49
2023/12/08 02:30:33;;;;;;;18.75;3.38;;;;;;;7.62;100.00;98598.06;5107944;28;20052;-47
2023/12/08 02:33:11;;;;;;;26.67;3.60;;;;;;;7.62;100.00;98583.50;5107459;28;20093;-49
2023/12/08 02:35:42;;;;;;;14.60;2.97;;;;;;;7.62;100.00;98597.28;5090707;28;20055;-48
2023/12/08 02:38:15;;;;;;;13.95;3.13;;;;;;;7.62;100.00;98594.53;5108355;28;20031;-48
2023/12/08 02:40:42;;;;;;;;;;;;;;;7.60;100.00;98602.38;5108319;28;20551;-47
2023/12/08 02:43:09;;;;;;;14.30;2.97;;;;;;;7.60;100.00;98597.63;5107318;28;19965;-51
2023/12/08 02:45:36;;;;;;;14.48;3.10;;;;;;;7.62;100.00;98600.03;5107816;28;20035;-44
2023/12/08 02:48:04;;;;;;;17.52;4.22;;;;;;;7.64;100.00;98592.19;5104049;28;20050;-51
2023/12/08 02:50:33;;;;;;;12.07;1.88;;;;;;;7.67;100.00;98591.44;5106461;28;20449;-47
2023/12/08 02:53:00;;;;;;;11.80;2.05;;;;;;;7.67;100.00;98586.72;5089715;28;20180;-47
2023/12/08 02:55:27;;;;;;;11.32;2.08;;;;;;;7.69;100.00;98595.38;5089554;28;20416;-45
2023/12/08 02:57:57;;;;;;;17.42;4.68;;;;;;;7.70;100.00;98610.75;5108902;28;20048;-49
2023/12/08 03:02:57;;;;;;;13.52;2.22;;;;;;;7.73;100.00;98611.97;5077234;22;20052;-51
2023/12/08 03:05:24;;;;;;;10.13;1.98;;;;;;;7.72;100.00;98604.84;5057891;28;20236;-49
2023/12/08 03:07:53;;;;;;;17.77;3.63;;;;;;;7.73;100.00;98609.97;5063040;28;20049;-46
2023/12/08 03:10:21;;;;;;;11.93;3.20;;;;;;;7.74;100.00;98621.78;5054183;28;20073;-47
2023/12/08 03:12:48;;;;;;;22.63;4.30;;;;;;;7.74;100.00;98622.59;5067435;28;20513;-48
2023/12/08 03:15:16;;;;;;;17.05;4.28;;;;;;;7.76;100.00;98623.00;5065642;28;20078;-49
2023/12/08 03:17:44;;;;;;;8.02;2.15;;;;;;;7.74;100.00;98624.53;5058732;28;20056;-49
2023/12/08 03:20:12;;;;;;;11.20;2.15;;;;;;;7.75;100.00;98624.19;5048661;28;20032;-48
2023/12/08 03:22:40;;;;;;;8.73;2.70;;;;;;;7.75;100.00;98621.41;5067461;28;20098;-51
2023/12/08 03:25:07;;;;;;;9.75;2.88;;;;;;;7.75;100.00;98626.94;5062646;28;20048;-50
2023/12/08 03:27:35;;;;;;;10.07;1.58;;;;;;;7.75;100.00;98620.63;5052775;28;20048;-51
2023/12/08 03:30:03;;;;;;;16.00;2.72;;;;;;;7.74;100.00;98619.03;5048524;28;20135;-50
2023/12/08 03:32:31;;;;;;;12.25;2.03;;;;;;;7.74;100.00;98627.28;5049032;28;20104;-50
2023/12/08 03:34:59;;;;;;;19.35;3.22;;;;;;;7.74;100.00;98625.34;5056894;28;20453;-53
2023/12/08 03:37:27;;;;;;;28.05;4.25;;;;;;;7.75;100.00;98628.88;5055440;28;20036;-47
2023/12/08 03:39:55;;;;;;;9.20;3.10;;;;;;;7.74;100.00;98630.03;5060240;28;20048;-51
2023/12/08 03:42:22;;;;;;;16.73;3.60;;;;;;;7.74;100.00;98630.03;5043806;28;20052;-48
2023/12/08 03:44:50;;;;;;;14.27;3.65;;;;;;;7.74;100.00;98624.53;5067114;28;20523;-48
2023/12/08 03:47:18;;;;;;;13.27;2.10;;;;;;;7.75;100.00;98637.16;5044121;28;20049;-53
2023/12/08 03:49:46;;;;;;;11.77;2.78;;;;;;;7.74;100.00;98633.59;5058102;28;20060;-49
2023/12/08 03:52:15;;;;;;;15.75;3.58;;;;;;;7.75;100.00;98632.44;5060453;28;20130;-48
2023/12/08 03:54:42;;;;;;;8.05;2.17;;;;;;;7.76;100.00;98642.28;5062027;28;20053;-51
2023/12/08 03:57:10;;;;;;;15.82;3.60;;;;;;;7.76;100.00;98636.75;5051628;28;20053;-52
2023/12/08 03:59:37;;;;;;;19.52;4.53;;;;;;;7.76;100.00;98628.50;5066723;28;20048;-50
2023/12/08 04:02:04;;;;;;;15.43;2.67;;;;;;;7.75;100.00;98615.91;5039286;28;20106;-52
2023/12/08 04:04:32;;;;;;;16.17;4.10;;;;;;;7.75;100.00;98615.91;5027914;28;20247;-47
2023/12/08 04:06:59;;;;;;;13.25;2.55;;;;;;;7.76;100.00;98631.25;5047006;28;20090;-50
2023/12/08 04:09:26;;;;;;;13.88;2.30;;;;;;;7.76;100.00;98611.97;5027587;28;20103;-49
2023/12/08 04:11:56;;;;;;;11.85;2.38;;;;;;;7.78;100.00;98622.63;5045680;28;20041;-52
2023/12/08 04:14:23;;;;;;;14.23;2.97;;;;;;;7.78;100.00;98620.63;5034213;28;20099;-46
2023/12/08 04:16:51;;;;;;;13.95;4.07;;;;;;;7.78;100.00;98626.16;5032803;28;20052;-51
2023/12/08 04:19:19;;;;;;;14.48;3.00;;;;;;;7.78;100.00;98620.63;5019642;28;20091;-49
2023/12/08 04:21:47;;;;;;;14.27;3.05;;;;;;;7.79;100.00;98621.44;5034258;28;20568;-49
2023/12/08 04:24:14;;;;;;;9.85;2.08;;;;;;;7.79;100.00;98622.25;5040738;28;20044;-54
2023/12/08 04:26:45;;;;;;;13.82;3.25;;;;;;;7.79;100.00;98625.00;5017295;28;20049;-51
2023/12/08 04:29:12;;;;;;;15.18;3.30;;;;;;;7.79;100.00;98619.47;5045405;28;20483;-49
2023/12/08 04:31:39;;;;;;;19.88;3.45;;;;;;;7.79;100.00;98621.44;5035754;28;20037;-50
2023/12/08 04:34:07;;;;;;;16.85;3.58;;;;;;;7.79;100.00;98626.94;5046483;28;20529;-51
2023/12/08 04:36:34;;;;;;;14.68;2.67;;;;;;;7.81;100.00;98636.41;5037139;28;20103;-47
2023/12/08 04:39:02;;;;;;;16.77;2.85;;;;;;;7.83;100.00;98628.59;5045992;28;20041;-50
2023/12/08 04:41:29;;;;;;;10.50;2.65;;;;;;;7.83;100.00;98625.84;5043209;28;20040;-49
2023/12/08 04:43:57;;;;;;;12.68;2.90;;;;;;;7.84;100.00;98643.94;5036013;28;20045;-49
2023/12/08 04:46:24;;;;;;;11.70;2.42;;;;;;;7.85;100.00;98642.78;5038422;28;20478;-48
2023/12/08 04:48:52;;;;;;;12.52;2.50;;;;;;;7.87;100.00;98642.38;5040901;28;20503;-49
2023/12/08 04:51:19;;;;;;;10.70;2.33;;;;;;;7.87;100.00;98629.41;5039046;28;20038;-49
2023/12/08 04:53:46;;;;;;;12.48;2.97;;;;;;;7.87;100.00;98640.41;5048700;28;20501;-52
2023/12/08 04:56:14;;;;;;;25.38;5.15;;;;;;;7.87;100.00;98632.16;5042311;28;20041;-48
2023/12/08 04:58:41;;;;;;;16.17;3.00;;;;;;;7.86;100.00;98630.56;5039822;28;20041;-45
2023/12/08 05:01:13;;;;;;;18.08;3.75;;;;;;;7.85;100.00;98631.75;5048040;28;20107;-46
2023/12/08 05:03:41;;;;;;;19.63;2.75;;;;;;;7.83;100.00;98634.09;5040942;28;20506;-48
2023/12/08 05:06:09;;;;;;;14.93;2.75;;;;;;;7.82;100.00;98640.78;5040803;28;20839;-48
2023/12/08 05:08:36;;;;;;;12.23;2.40;;;;;;;7.81;100.00;98641.94;5042191;28;20049;-49
2023/12/08 05:11:04;;;;;;;12.75;2.30;;;;;;;7.80;100.00;98643.13;5049765;28;20103;-51
2023/12/08 05:13:31;;;;;;;19.48;3.30;;;;;;;7.78;100.00;98653.69;5049972;28;20041;-50
2023/12/08 05:15:58;;;;;;;20.88;3.05;;;;;;;7.77;100.00;98641.13;5044141;28;20052;-48
2023/12/08 05:18:26;;;;;;;16.08;3.30;;;;;;;7.76;100.00;98642.28;5025254;28;20095;-53
2023/12/08 05:20:53;;;;;;;17.30;3.45;;;;;;;7.77;100.00;98645.81;5042609;28;20049;-52
2023/12/08 05:23:21;;;;;;;12.73;3.45;;;;;;;7.75;100.00;98648.16;5044017;28;20033;-48
2023/12/08 05:25:48;;;;;;;26.23;5.50;;;;;;;7.74;100.00;98650.13;5037678;28;20041;-51
2023/12/08 05:28:16;;;;;;;15.45;2.88;;;;;;;7.74;100.00;98652.88;5043058;28;20045;-52
2023/12/08 05:30:45;;;;;;;14.65;3.75;;;;;;;7.73;100.00;98645.78;5032122;28;20088;-50
2023/12/08 05:33:13;;;;;;;12.68;3.13;;;;;;;7.73;100.00;98662.31;5038178;28;20072;-49
2023/12/08 05:35:40;;;;;;;9.48;2.75;;;;;;;7.74;100.00;98652.88;5042834;28;20568;-49
2023/12/08 05:38:07;;;;;;;13.63;3.00;;;;;;;7.75;100.00;98662.75;5042315;28;20510;-50
2023/12/08 05:40:35;;;;;;;15.63;2.70;;;;;;;7.77;100.00;98659.59;5049633;28;20041;-50
2023/12/08 05:43:03;;;;;;;12.88;2.55;;;;;;;7.78;100.00;98661.97;5040217;28;20041;-52
2023/12/08 05:45:30;;;;;;;15.13;3.33;;;;;;;7.78;100.00;98663.94;5042392;28;20084;-54
2023/12/08 05:47:57;;;;;;;14.48;2.40;;;;;;;7.79;100.00;98649.78;5033171;28;20053;-49
2023/12/08 05:50:25;;;;;;;12.75;2.40;;;;;;;7.78;100.00;98650.94;5049430;28;20041;-49
2023/12/08 05:52:52;;;;;;;13.15;4.25;;;;;;;7.78;100.00;98653.69;5031706;28;20049;-52
2023/12/08 05:55:20;;;;;;;24.65;6.82;;;;;;;7.77;100.00;98652.13;5035835;28;20057;-50
2023/12/08 05:57:47;;;;;;;22.27;5.55;;;;;;;7.80;100.00;98639.56;5045231;28;20061;-50
2023/12/08 06:00:17;;;;;;;19.65;3.90;;;;;;;7.80;100.00;98656.09;5038080;28;20049;-47
2023/12/08 06:02:45;;;;;;;13.35;2.58;;;;;;;7.83;100.00;98649.81;5042949;28;20055;-51
2023/12/08 06:05:13;;;;;;;21.38;4.22;;;;;;;7.81;100.00;98644.69;5035862;28;20103;-53
2023/12/08 06:07:40;;;;;;;17.02;2.92;;;;;;;7.82;100.00;98649.03;5038709;28;20061;-49
2023/12/08 06:10:08;;;;;;;14.70;5.20;;;;;;;7.82;100.00;98643.53;5045373;28;20079;-50
2023/12/08 06:12:35;;;;;;;16.13;2.55;;;;;;;7.83;100.00;98645.13;5049256;28;20056;-54
2023/12/08 06:15:04;;;;;;;13.68;2.80;;;;;;;7.85;100.00;98659.31;5037497;28;20104;-52
2023/12/08 06:17:32;;;;;;;11.57;2.92;;;;;;;7.88;100.00;98657.75;5041010;28;20045;-49
2023/12/08 06:19:59;;;;;;;17.17;2.63;;;;;;;7.89;100.00;98662.88;5040819;28;20107;-51
2023/12/08 06:22:27;;;;;;;12.85;3.13;;;;;;;7.90;100.00;98669.97;5039292;28;20095;-52
2023/12/08 06:24:56;;;;;;;19.00;4.03;;;;;;;7.91;100.00;98668.81;5039775;28;20059;-53
2023/12/08 06:27:24;;;;;;;13.90;2.67;;;;;;;7.89;100.00;98671.13;5041410;28;20045;-48
2023/12/08 06:29:52;;;;;;;19.67;3.17;;;;;;;7.92;100.00;98667.63;5044396;28;20037;-52
2023/12/08 06:32:19;;;;;;;15.10;2.50;;;;;;;7.92;100.00;98664.88;5031442;28;20045;-48
2023/12/08 06:34:46;;;;;;;14.55;2.85;;;;;;;7.91;100.00;98668.81;5040043;28;20052;-48
2023/12/08 06:37:14;;;;;;;20.48;2.60;;;;;;;7.92;100.00;98666.84;5029224;28;20045;-50
2023/12/08 06:39:42;;;;;;;16.65;3.72;;;;;;;7.91;100.00;98668.81;5044935;28;20094;-51
2023/12/08 06:42:10;;;;;;;12.98;2.05;;;;;;;7.89;100.00;98668.38;5039793;28;20052;-50
2023/12/08 06:44:38;;;;;;;9.27;2.05;;;;;;;7.88;100.00;98669.56;5037713;28;20037;-50
2023/12/08 06:47:06;;;;;;;12.55;2.20;;;;;;;7.87;100.00;98667.97;5040759;28;20048;-53
2023/12/08 06:49:33;;;;;;;10.25;3.47;;;;;;;7.86;100.00;98654.59;5031975;28;20049;-50
2023/12/08 06:52:03;;;;;;;9.77;2.13;;;;;;;7.85;100.00;98670.31;5042854;28;20107;-51
2023/12/08 06:54:31;;;;;;;8.50;2.05;;;;;;;7.86;100.00;98668.38;5053842;28;20041;-48
2023/12/08 06:56:58;;;;;;;7.78;2.00;;;;;;;7.88;100.00;98669.56;5035205;28;20127;-49
2023/12/08 06:59:25;;;;;;;15.30;2.85;;;;;;;7.89;100.00;98673.88;5040326;28;20103;-50
2023/12/08 07:01:54;;;;;;;16.88;2.65;;;;;;;7.90;100.00;98677.44;5043698;28;20152;-49
2023/12/08 07:04:21;;;;;;;13.73;2.75;;;;;;;7.91;100.00;98679.84;5031412;28;20049;-48
2023/12/08 07:06:48;;;;;;;10.45;2.50;;;;;;;7.92;100.00;98686.91;5052485;28;20045;-52
2023/12/08 07:09:16;;;;;;;9.20;2.28;;;;;;;7.93;100.00;98677.50;5031594;28;20545;-51
2023/12/08 07:11:44;;;;;;;15.75;4.05;;;;;;;7.96;100.00;98671.22;5037667;28;20133;-52
2023/12/08 07:14:11;;;;;;;11.65;2.40;;;;;;;7.97;100.00;98678.31;5037764;28;20091;-52
2023/12/08 07:16:42;;;;;;;13.43;2.30;;;;;;;7.98;100.00;98674.41;5034999;28;20044;-51
2023/12/08 07:19:10;;;;;;;15.40;2.45;;;;;;;7.99;100.00;98681.47;5023579;28;20033;-50
2023/12/08 07:21:42;;;;;;;15.27;3.22;;;;;;;7.98;100.00;98679.91;5043711;28;20048;-53
2023/12/08 07:24:11;;;;;;;19.42;3.55;;;;;;;8.00;100.00;98671.25;5047932;28;20091;-51
2023/12/08 07:26:38;;;;;;;13.50;2.28;;;;;;;8.02;100.00;98673.63;5046200;28;20045;-53
2023/12/08 07:29:05;;;;;;;23.20;4.82;;;;;;;8.02;100.00;98676.41;5039174;28;20445;-52
2023/12/08 07:31:33;;;;;;;16.27;3.80;;;;;;;8.01;100.00;98669.28;5042594;28;20048;-51
2023/12/08 07:34:01;;;;;;;18.02;2.85;;;;;;;7.99;100.00;98675.97;5041782;28;20103;-50
2023/12/08 07:36:29;;;;;;;19.08;4.05;;;;;;;8.01;100.00;98667.34;5045045;28;20045;-49
2023/12/08 07:38:56;;;;;;;13.20;3.15;;;;;;;8.02;100.00;98668.94;5047992;28;20079;-51
2023/12/08 07:41:24;;;;;;;18.35;4.25;;;;;;;8.03;100.00;98664.19;5047761;28;20041;-52
2023/12/08 07:43:54;;;;;;;19.92;3.42;;;;;;;8.04;100.00;98676.81;5048295;28;20506;-51
2023/12/08 07:46:27;;;;;;;16.13;3.78;;;;;;;8.06;100.00;98675.25;5035458;28;20045;-48
2023/12/08 07:48:54;;;;;;;18.33;4.20;;;;;;;8.07;100.00;98670.53;5047132;28;20098;-48
2023/12/08 07:51:21;;;;;;;16.75;3.20;;;;;;;8.09;100.00;98679.22;5036476;28;20052;-53
2023/12/08 07:53:49;;;;;;;19.52;4.35;;;;;;;8.11;100.00;98676.88;5054527;28;20072;-51
2023/12/08 07:56:16;;;;;;;16.33;4.28;;;;;;;8.13;100.00;98686.34;5036049;28;20041;-52
2023/12/08 07:58:44;;;;;;;20.83;3.85;;;;;;;8.13;100.00;98691.84;5047699;28;20057;-51
2023/12/08 08:01:11;;;;;;;13.60;3.08;;;;;;;8.14;100.00;98689.88;5047602;28;20060;-49
2023/12/08 08:03:40;;;;;;;15.30;2.95;;;;;;;8.14;100.00;98689.88;5048674;28;20052;-52
2023/12/08 08:06:07;;;;;;;11.75;3.20;;;;;;;8.15;100.00;98699.75;5053969;28;20571;-48
2023/12/08 08:08:36;;;;;;;17.25;5.05;;;;;;;8.15;100.00;98694.25;5051222;28;20722;-50
2023/12/08 08:11:04;;;;;;;25.00;4.05;;;;;;;8.17;100.00;98697.41;5047319;28;20092;-53
2023/12/08 08:13:32;;;;;;;18.23;2.97;;;;;;;8.17;100.00;98702.91;5043695;28;20080;-53
2023/12/08 08:15:59;;;;;;;20.83;2.97;;;;;;;8.16;100.00;98701.31;5032820;28;20518;-51
2023/12/08 08:18:30;;;;;;;17.33;3.38;;;;;;;8.16;100.00;98684.78;5033405;28;20045;-51
2023/12/08 08:20:58;;;;;;;19.13;3.25;;;;;;;8.15;100.00;98697.00;5043244;28;20045;-49
2023/12/08 08:23:26;;;;;;;14.48;3.42;;;;;;;8.14;100.00;98689.88;5032278;28;20041;-50
2023/12/08 08:25:53;;;;;;;23.08;4.10;;;;;;;8.13;100.00;98702.09;5028865;28;20048;-52
2023/12/08 08:28:24;;;;;;;13.88;2.97;;;;;;;8.14;100.00;98706.44;5045116;28;20056;-51
2023/12/08 08:30:51;;;;;;;19.33;3.22;;;;;;;8.13;100.00;98691.84;5040132;28;20049;-49
2023/12/08 08:33:19;;;;;;;18.80;2.88;;;;;;;8.15;100.00;98694.25;5042357;28;20045;-46
2023/12/08 08:35:47;;;;;;;20.98;3.00;;;;;;;8.15;100.00;98711.56;5041735;28;20099;-51
2023/12/08 08:38:15;;;;;;;19.33;3.88;;;;;;;8.16;100.00;98720.63;5039638;28;20043;-50
2023/12/08 08:40:43;;;;;;;12.52;4.28;;;;;;;8.19;100.00;98717.09;5049317;28;20049;-53
2023/12/08 08:43:10;;;;;;;19.30;3.28;;;;;;;8.21;100.00;98709.25;5045304;28;20041;-53
2023/12/08 08:45:38;;;;;;;14.68;3.67;;;;;;;8.23;100.00;98709.69;5043879;28;20127;-50
2023/12/08 08:48:05;;;;;;;14.82;3.00;;;;;;;8.23;100.00;98717.94;5038056;28;20059;-51
2023/12/08 08:50:33;;;;;;;16.30;2.80;;;;;;;8.23;100.00;98723.47;5036411;28;20054;-46
2023/12/08 08:53:18;;;;;;;18.05;3.17;;;;;;;8.24;100.00;98716.75;5036325;28;20064;-49
2023/12/08 08:55:46;;;;;;;13.40;2.65;;;;;;;8.24;100.00;98714.00;5045528;28;20087;-55
2023/12/08 08:58:13;;;;;;;17.70;3.60;;;;;;;8.24;100.00;98725.03;5033868;28;20454;-53
2023/12/08 09:00:40;;;;;;;11.38;2.65;;;;;;;8.24;100.00;98725.81;5033160;28;20467;-50
2023/12/08 09:03:08;;;;;;;7.22;2.67;;;;;;;8.26;100.00;98731.75;5041688;28;20042;-52
2023/12/08 09:05:40;;;;;;;12.07;2.88;;;;;;;8.27;100.00;98718.78;5050089;28;20052;-51
2023/12/08 09:08:09;;;;;;;10.65;2.28;;;;;;;8.26;100.00;98730.97;5048181;28;20044;-53
2023/12/08 09:10:38;;;;;;;20.95;3.38;;;;;;;8.27;100.00;98733.38;5044307;28;20457;-51
2023/12/08 09:13:05;;;;;;;16.35;3.67;;;;;;;8.27;100.00;98735.34;5038621;28;20103;-51
2023/12/08 09:15:33;;;;;;;20.52;3.38;;;;;;;8.27;100.00;98732.56;5040367;28;20044;-49
2023/12/08 09:18:00;;;;;;;15.18;3.30;;;;;;;8.25;100.00;98740.41;5031258;28;20045;-47
2023/12/08 09:20:28;;;;;;;16.45;2.88;;;;;;;8.23;100.00;98745.50;5050832;28;20041;-48
2023/12/08 09:22:55;;;;;;;14.10;2.70;;;;;;;8.20;100.00;98746.28;5046705;28;20045;-49
2023/12/08 09:25:23;;;;;;;19.05;7.15;;;;;;;8.19;100.00;98744.66;5043098;28;20106;-53
2023/12/08 09:27:50;;;;;;;22.52;3.53;;;;;;;8.18;100.00;98749.38;5036557;28;20050;-53
2023/12/08 09:30:19;;;;;;;10.82;4.60;;;;;;;8.17;100.00;98750.56;5039773;28;20419;-49
2023/12/08 09:32:46;;;;;;;12.93;2.40;;;;;;;8.16;100.00;98735.19;5042883;28;20756;-49
2023/12/08 09:35:14;;;;;;;14.88;3.47;;;;;;;8.16;100.00;98734.41;5038288;28;20479;-49
2023/12/08 09:37:42;;;;;;;13.77;2.75;;;;;;;8.15;100.00;98741.91;5043338;28;20075;-48
2023/12/08 09:40:13;;;;;;;16.83;2.40;;;;;;;8.14;100.00;98753.28;5033308;28;20033;-50
2023/12/08 09:42:58;;;;;;;10.90;2.50;;;;;;;8.15;100.00;98744.66;5040634;28;20437;-53
2023/12/08 09:45:25;;;;;;;16.60;2.95;;;;;;;8.16;100.00;98739.91;5045964;28;20055;-47
2023/12/08 09:47:56;;;;;;;14.98;3.17;;;;;;;8.17;100.00;98744.25;5043407;28;20091;-47
2023/12/08 09:50:26;;;;;;;18.77;3.40;;;;;;;8.18;100.00;98751.38;5043554;28;20076;-52
2023/12/08 09:52:54;;;;;;;10.13;3.00;;;;;;;8.20;100.00;98740.75;5040495;28;20040;-48
2023/12/08 09:55:22;;;;;;;21.10;4.00;;;;;;;8.20;100.00;98740.75;5033622;28;20507;-47
2023/12/08 09:57:52;;;;;;;10.32;1.73;;;;;;;8.21;100.00;98736.81;5041473;28;20041;-46
2023/12/08 10:00:21;;;;;;;9.93;2.00;;;;;;;8.21;100.00;98748.63;5044155;28;20045;-45
2023/12/08 10:02:49;;;;;;;15.80;2.97;;;;;;;8.23;100.00;98738.03;5044571;28;20514;-52
2023/12/08 10:05:17;;;;;;;18.08;2.72;;;;;;;8.27;100.00;98746.38;5036056;28;20100;-53
2023/12/08 10:07:46;;;;;;;15.35;2.28;;;;;;;8.30;100.00;98740.09;5036266;28;20103;-48
2023/12/08 10:10:13;;;;;;;13.20;2.60;;;;;;;8.31;100.00;98747.22;5033731;28;20045;-47
2023/12/08 10:12:41;;;;;;;15.57;4.07;;;;;;;8.33;100.00;98750.38;5042052;28;20453;-52
2023/12/08 10:15:13;;;;;;;12.18;2.08;;;;;;;8.34;100.00;98743.69;5049153;28;20140;-52
2023/12/08 10:17:51;;;;;;;9.20;2.75;;;;;;;8.35;100.00;98745.25;5045647;28;20041;-46
2023/12/08 10:20:21;;;;;;;13.50;2.63;;;;;;;8.35;100.00;98759.84;5044670;28;20040;-51
2023/12/08 10:22:58;;;;;;;10.32;4.00;;;;;;;8.35;100.00;98742.50;5034335;28;20095;-49
2023/12/08 10:25:30;;;;;;;10.88;2.20;;;;;;;8.37;100.00;98762.22;5029490;28;20565;-50
2023/12/08 10:27:59;;;;;;;14.75;3.17;;;;;;;8.39;100.00;98757.91;5043973;28;20037;-52
2023/12/08 10:30:26;;;;;;;14.48;2.50;;;;;;;8.43;100.00;98763.47;5039094;28;20048;-52
2023/12/08 10:32:54;;;;;;;20.25;2.92;;;;;;;8.46;100.00;98771.78;5041090;28;20116;-48
2023/12/08 10:35:23;;;;;;;11.00;2.90;;;;;;;8.48;100.00;98768.63;5041043;28;20037;-46
2023/12/08 10:37:50;;;;;;;20.50;4.18;;;;;;;8.50;100.00;98769.84;5039380;28;20118;-50
2023/12/08 10:40:18;;;;;;;15.68;3.55;;;;;;;8.53;100.00;98776.56;5036492;28;20668;-47
2023/12/08 10:42:47;;;;;;;13.20;2.90;;;;;;;8.54;100.00;98772.66;5030387;28;20539;-50
2023/12/08 10:45:16;;;;;;;9.55;2.55;;;;;;;8.55;100.00;98768.72;5012226;28;20132;-51
2023/12/08 10:47:45;;;;;;;11.85;2.92;;;;;;;8.55;100.00;98774.25;5036772;28;20049;-49
2023/12/08 10:50:15;;;;;;;13.32;3.08;;;;;;;8.54;100.00;98781.72;5047121;28;20130;-46
2023/12/08 10:52:43;;;;;;;14.60;3.72;;;;;;;8.54;100.00;98775.41;5046880;28;20029;-47
2023/12/08 10:55:10;;;;;;;15.13;2.58;;;;;;;8.54;100.00;98767.13;5046366;28;20048;-49
2023/12/08 10:57:38;;;;;;;14.07;3.63;;;;;;;8.53;100.00;98757.25;5040625;28;20041;-47
2023/12/08 11:00:11;;;;;;;12.25;2.25;;;;;;;8.53;100.00;98779.31;5036756;28;20053;-54
2023/12/08 11:02:43;;;;;;;10.30;2.65;;;;;;;8.53;100.00;98771.84;5039849;28;20057;-48
2023/12/08 11:05:15;;;;;;;8.68;2.42;;;;;;;8.53;100.00;98771.84;5034816;28;20103;-47
2023/12/08 11:07:46;;;;;;;10.18;2.03;;;;;;;8.56;100.00;98775.81;5034275;28;20095;-50
2023/12/08 11:10:15;;;;;;;9.73;1.90;;;;;;;8.57;100.00;98767.16;5036219;28;20083;-48
2023/12/08 11:12:53;;;;;;;10.25;2.65;;;;;;;8.60;100.00;98773.09;5013852;28;20049;-48
2023/12/08 11:15:22;;;;;;;10.00;2.00;;;;;;;8.63;100.00;98780.63;5041034;28;20099;-52
2023/12/08 11:17:59;;;;;;;9.85;3.05;;;;;;;8.66;100.00;98774.34;5036314;28;20045;-48
2023/12/08 11:20:26;;;;;;;13.43;3.08;;;;;;;8.66;100.00;98775.09;5034598;28;20099;-49
2023/12/08 11:22:54;;;;;;;8.52;1.83;;;;;;;8.67;100.00;98775.91;5031640;28;20038;-50
2023/12/08 11:25:30;;;;;;;10.80;2.08;;;;;;;8.69;100.00;98784.59;5035294;28;20052;-50
2023/12/08 11:28:12;;;;;;;10.50;1.98;;;;;;;8.71;100.00;98793.31;5043087;28;20098;-48
2023/12/08 11:30:53;;;;;;;6.53;1.95;;;;;;;8.71;100.00;98783.03;5030452;28;20049;-48
2023/12/08 11:33:30;;;;;;;12.93;1.90;;;;;;;8.72;100.00;98790.16;5037851;28;20111;-48
2023/12/08 11:36:18;;;;;;;12.85;3.17;;;;;;;8.71;100.00;98777.50;5032111;28;20046;-49